Time;durP1;ratioP1;P1;durP2;ratioP2;P2;SDS_P1;SDS_P2;PMS_P1;PMS_P2;Temp;Humidity;BMP_temperature;BMP_pressure;BME280_temperature;BME280_humidity;BME280_pressure;Samples;Min_cycle;Max_cycle;Signal;HPM_P1;HPM_P2
2021/12/08 00:02:26;;;;;;;41.90;19.10;;;;;;;-4.03;77.62;99883.66;5115558;28;20475;-80
2021/12/08 00:04:54;;;;;;;30.15;13.50;;;;;;;-4.02;77.36;99885.41;5114410;28;20050;-79
2021/12/08 00:07:23;;;;;;;26.05;12.68;;;;;;;-3.96;76.53;99883.69;5115350;28;20554;-79
2021/12/08 00:10:02;;;;;;;24.63;11.32;;;;;;;-3.87;76.72;99887.25;5115419;28;20044;-79
2021/12/08 00:15:14;;;;;;;24.27;11.73;;;;;;;-3.82;74.72;99888.13;5115924;28;20047;-79
2021/12/08 00:17:42;;;;;;;25.95;11.57;;;;;;;-3.74;73.36;99885.53;5115480;28;20047;-79
2021/12/08 00:20:11;;;;;;;25.92;13.23;;;;;;;-3.99;75.09;99890.72;5113978;28;20052;-80
2021/12/08 00:22:40;;;;;;;34.17;14.75;;;;;;;-4.03;75.70;99883.66;5115221;27;20547;-79
2021/12/08 00:25:08;;;;;;;34.30;14.57;;;;;;;-4.20;76.58;99881.84;5114983;28;20044;-79
2021/12/08 00:27:35;;;;;;;26.52;11.98;;;;;;;-3.86;75.27;99887.25;5094340;28;20451;-79
2021/12/08 00:30:04;;;;;;;23.35;10.48;;;;;;;-3.98;75.68;99882.81;5094630;28;20047;-78
2021/12/08 00:32:34;;;;;;;22.85;10.27;;;;;;;-3.88;75.83;99888.13;5094578;28;20047;-79
2021/12/08 00:35:02;;;;;;;22.90;10.95;;;;;;;-4.17;74.25;99886.22;5094549;28;20093;-79
2021/12/08 00:37:29;;;;;;;29.67;13.32;;;;;;;-3.99;76.07;99894.25;5094492;28;20385;-79
2021/12/08 00:39:59;;;;;;;26.45;12.93;;;;;;;-4.02;74.59;99890.69;5094417;28;20486;-80
2021/12/08 00:42:27;;;;;;;24.38;11.95;;;;;;;-4.15;74.80;99898.56;5094141;28;20452;-79
2021/12/08 00:44:54;;;;;;;26.48;13.27;;;;;;;-4.13;76.58;99894.19;5094590;28;20052;-78
2021/12/08 00:47:22;;;;;;;31.85;14.20;;;;;;;-4.01;75.97;99893.34;5094312;28;20048;-79
2021/12/08 00:49:49;;;;;;;27.60;12.93;;;;;;;-4.12;75.65;99898.59;5094436;28;20052;-79
2021/12/08 00:52:17;;;;;;;27.80;12.68;;;;;;;-4.16;75.95;99898.56;5094314;28;20048;-79
2021/12/08 00:54:44;;;;;;;29.95;12.82;;;;;;;-4.09;76.72;99898.59;5094646;28;20047;-78
2021/12/08 00:57:14;;;;;;;26.38;12.48;;;;;;;-4.04;74.60;99900.38;5093842;28;20551;-79
2021/12/08 00:59:42;;;;;;;24.05;10.40;;;;;;;-4.12;75.31;99901.22;5094300;28;20044;-80
2021/12/08 01:02:09;;;;;;;41.70;18.35;;;;;;;-4.00;77.23;99894.22;5094141;28;20070;-79
2021/12/08 01:04:37;;;;;;;25.02;11.95;;;;;;;-4.12;76.47;99897.69;5094223;28;20044;-79
2021/12/08 01:07:05;;;;;;;25.67;10.80;;;;;;;-3.98;77.00;99897.75;5093808;28;20435;-78
2021/12/08 01:09:33;;;;;;;45.63;18.30;;;;;;;-4.04;77.68;99884.53;5093609;28;20044;-79
2021/12/08 01:12:02;;;;;;;24.27;11.85;;;;;;;-4.13;77.39;99888.00;5103917;28;20044;-79
2021/12/08 01:14:31;;;;;;;22.45;10.55;;;;;;;-3.81;75.69;99882.88;5114336;27;20409;-79
2021/12/08 01:16:59;;;;;;;23.35;10.80;;;;;;;-3.93;75.94;99882.81;5113807;28;20043;-79
2021/12/08 01:19:27;;;;;;;20.65;9.10;;;;;;;-4.03;76.88;99886.28;5113848;27;20059;-79
2021/12/08 01:21:54;;;;;;;22.33;11.20;;;;;;;-3.93;76.11;99883.72;5114181;27;20044;-78
2021/12/08 01:24:22;;;;;;;23.20;11.52;;;;;;;-3.98;75.64;99881.91;5113488;28;20035;-79
2021/12/08 01:26:50;;;;;;;43.25;18.55;;;;;;;-4.08;76.39;99892.44;5114025;28;20039;-79
2021/12/08 01:29:17;;;;;;;26.70;11.95;;;;;;;-3.88;75.56;99881.06;5113985;28;20040;-79
2021/12/08 01:31:46;;;;;;;27.30;12.70;;;;;;;-4.15;76.20;99877.47;5113221;28;20043;-79
2021/12/08 01:34:14;;;;;;;28.88;12.75;;;;;;;-3.96;76.79;99874.88;5114069;27;20443;-79
2021/12/08 01:36:42;;;;;;;24.65;11.85;;;;;;;-3.93;75.72;99861.69;5113938;27;20043;-79
2021/12/08 01:39:10;;;;;;;27.77;11.77;;;;;;;-4.04;77.03;99866.06;5113535;28;20047;-79
2021/12/08 01:41:39;;;;;;;28.08;12.70;;;;;;;-3.94;76.63;99866.09;5113923;28;20043;-79
2021/12/08 01:46:54;;;;;;;28.48;11.60;;;;;;;-3.80;75.40;99855.59;5114818;28;20047;-80
2021/12/08 01:49:22;;;;;;;34.05;15.80;;;;;;;-3.94;76.46;99849.38;5113560;28;20065;-79
2021/12/08 01:51:50;;;;;;;32.58;14.88;;;;;;;-3.86;76.41;99850.31;5113854;28;20488;-80
2021/12/08 01:54:18;;;;;;;29.58;12.13;;;;;;;-3.78;76.07;99845.03;5113234;28;20039;-78
2021/12/08 01:56:45;;;;;;;21.15;10.10;;;;;;;-3.69;74.77;99846.81;5113659;28;20101;-80
2021/12/08 01:59:13;;;;;;;29.45;12.75;;;;;;;-3.97;76.76;99854.66;5113046;28;20576;-79
2021/12/08 02:01:44;;;;;;;38.30;16.50;;;;;;;-3.98;76.30;99848.50;5113354;28;20044;-79
2021/12/08 02:04:13;;;;;;;29.42;13.32;;;;;;;-3.95;75.88;99850.25;5115221;28;20485;-78
2021/12/08 02:06:43;;;;;;;20.33;9.93;;;;;;;-4.03;75.81;99850.25;5113521;28;20489;-79
2021/12/08 02:09:13;;;;;;;21.60;10.10;;;;;;;-3.82;75.48;99845.91;5113032;28;20047;-79
2021/12/08 02:11:44;;;;;;;48.50;19.40;;;;;;;-3.96;76.84;99835.28;5113644;27;20405;-79
2021/12/08 02:14:12;;;;;;;124.18;44.03;;;;;;;-4.14;77.27;99839.66;5113532;28;20104;-79
2021/12/08 02:16:40;;;;;;;25.52;12.43;;;;;;;-3.80;76.02;99833.56;5113467;28;20055;-79
2021/12/08 02:19:08;;;;;;;22.65;11.57;;;;;;;-3.91;76.47;99830.03;5113217;28;20064;-79
2021/12/08 02:21:38;;;;;;;30.63;14.30;;;;;;;-3.81;76.71;99831.81;5113322;28;20039;-79
2021/12/08 02:24:08;;;;;;;27.92;13.38;;;;;;;-3.68;75.90;99838.88;5113347;28;20546;-79
2021/12/08 02:26:36;;;;;;;22.52;11.18;;;;;;;-3.96;75.93;99838.81;5113174;28;20048;-78
2021/12/08 02:29:08;;;;;;;36.83;16.13;;;;;;;-4.02;77.10;99837.91;5113559;28;20044;-79
2021/12/08 02:31:43;;;;;;;32.42;14.45;;;;;;;-3.93;77.04;99845.84;5114728;28;20047;-79
2021/12/08 02:48:02;;;;;;;21.90;10.40;;;;;;;-3.84;76.67;99843.25;5054399;28;20058;-80
2021/12/08 02:50:32;;;;;;;37.90;19.55;;;;;;;-3.90;77.11;99848.50;5054211;28;20053;-79
2021/12/08 02:53:01;;;;;;;24.60;11.80;;;;;;;-3.68;75.97;99848.56;5054033;28;20052;-79
2021/12/08 02:55:30;;;;;;;29.38;14.70;;;;;;;-3.70;77.20;99845.03;5054307;28;20061;-79
2021/12/08 02:58:00;;;;;;;22.73;10.93;;;;;;;-3.73;76.00;99845.91;5054257;28;20056;-79
2021/12/08 03:00:29;;;;;;;27.33;10.95;;;;;;;-3.74;76.51;99853.84;5054172;28;20072;-79
2021/12/08 03:03:00;;;;;;;20.55;10.85;;;;;;;-4.01;77.10;99844.97;5054212;28;20061;-79
2021/12/08 03:05:29;;;;;;;24.02;11.27;;;;;;;-3.89;76.92;99842.34;5054333;28;20045;-79
2021/12/08 03:08:00;;;;;;;26.90;13.45;;;;;;;-3.88;77.61;99846.75;5053800;28;20085;-80
2021/12/08 03:10:31;;;;;;;24.75;10.65;;;;;;;-3.98;78.34;99843.22;5055005;28;20115;-79
2021/12/08 03:12:59;;;;;;;24.05;10.75;;;;;;;-3.76;77.47;99837.13;5054486;28;20045;-80
2021/12/08 03:15:27;;;;;;;22.55;10.63;;;;;;;-3.70;76.75;99827.44;5054181;28;20110;-80
2021/12/08 03:17:54;;;;;;;24.35;10.80;;;;;;;-3.70;76.64;99823.91;5054053;28;20049;-79
2021/12/08 03:20:37;;;;;;;22.02;10.10;;;;;;;-3.85;77.30;99828.31;5053670;28;20465;-79
2021/12/08 03:23:06;;;;;;;24.63;11.27;;;;;;;-4.13;78.34;99835.25;5095575;28;20141;-79
2021/12/08 03:25:38;;;;;;;23.70;10.55;;;;;;;-3.87;78.24;99840.63;5108597;28;20039;-80
2021/12/08 03:28:12;;;;;;;22.17;10.52;;;;;;;-3.88;78.37;99838.81;5116536;27;20046;-79
2021/12/08 03:30:53;;;;;;;22.85;10.90;;;;;;;-3.96;78.23;99843.22;5116223;27;20047;-80
2021/12/08 03:33:21;;;;;;;21.95;10.18;;;;;;;-3.91;77.56;99843.25;5116933;28;20489;-80
2021/12/08 03:35:49;;;;;;;23.83;10.75;;;;;;;-3.74;76.40;99832.72;5115924;27;20489;-80
2021/12/08 03:38:19;;;;;;;31.50;14.75;;;;;;;-4.09;78.07;99837.00;5116356;28;20437;-78
2021/12/08 03:40:48;;;;;;;26.33;13.40;;;;;;;-3.91;78.02;99836.19;5116132;28;20047;-79
2021/12/08 03:43:16;;;;;;;26.42;11.77;;;;;;;-3.94;76.83;99834.44;5116347;28;20054;-79
2021/12/08 03:45:47;;;;;;;63.03;27.23;;;;;;;-3.86;76.94;99836.22;5115954;28;20493;-79
2021/12/08 03:48:20;;;;;;;28.80;13.45;;;;;;;-3.83;78.33;99844.13;5117790;27;20059;-79
2021/12/08 03:50:48;;;;;;;30.83;14.10;;;;;;;-3.97;78.77;99838.81;5115831;28;20393;-79
2021/12/08 03:53:16;;;;;;;22.35;10.07;;;;;;;-3.61;76.57;99837.13;5115579;27;20116;-79
2021/12/08 03:55:48;;;;;;;24.60;10.52;;;;;;;-3.85;76.65;99836.22;5115073;28;20043;-79
2021/12/08 03:58:16;;;;;;;24.48;11.38;;;;;;;-3.79;76.17;99830.06;5117292;28;20047;-79
2021/12/08 04:00:47;;;;;;;24.27;11.35;;;;;;;-3.95;77.59;99829.13;5116146;28;20553;-80
2021/12/08 04:03:15;;;;;;;29.08;13.05;;;;;;;-4.09;77.77;99826.44;5116477;28;20470;-79
2021/12/08 04:05:51;;;;;;;32.08;13.18;;;;;;;-3.93;78.25;99830.03;5115108;28;20054;-79
2021/12/08 04:08:26;;;;;;;23.75;11.40;;;;;;;-3.92;76.87;99831.78;5117052;27;20443;-78
2021/12/08 04:10:55;;;;;;;28.10;12.43;;;;;;;-3.97;76.64;99818.59;5115657;28;20047;-79
2021/12/08 04:13:25;;;;;;;25.42;11.88;;;;;;;-3.82;78.02;99814.22;5115319;28;20048;-79
2021/12/08 04:15:53;;;;;;;30.98;13.43;;;;;;;-3.85;78.60;99815.09;5115426;28;20054;-79
2021/12/08 04:18:21;;;;;;;24.90;11.68;;;;;;;-3.94;77.82;99815.06;5114296;28;20493;-79
2021/12/08 04:20:51;;;;;;;32.88;14.20;;;;;;;-4.01;79.15;99805.38;5117321;27;20047;-80
2021/12/08 04:23:20;;;;;;;30.85;13.38;;;;;;;-4.08;79.24;99809.75;5115064;28;20047;-79
2021/12/08 04:25:52;;;;;;;25.35;11.82;;;;;;;-3.88;78.19;99798.38;5114833;28;20378;-79
2021/12/08 04:28:25;;;;;;;30.40;12.82;;;;;;;-3.93;78.79;99795.72;5116545;28;20484;-79
2021/12/08 04:30:57;;;;;;;25.60;12.60;;;;;;;-4.03;79.05;99801.84;5116657;28;20510;-79
2021/12/08 04:33:25;;;;;;;25.80;12.48;;;;;;;-4.11;78.63;99792.16;5114667;28;20054;-79
2021/12/08 04:35:53;;;;;;;33.72;14.57;;;;;;;-4.09;79.20;99794.78;5114549;28;20039;-79
2021/12/08 04:38:29;;;;;;;30.75;14.15;;;;;;;-4.02;79.63;99796.59;5114928;28;20267;-80
2021/12/08 04:41:02;;;;;;;29.05;11.93;;;;;;;-3.93;78.14;99793.06;5116489;28;20054;-79
2021/12/08 04:43:38;;;;;;;24.42;11.93;;;;;;;-4.03;78.33;99784.28;5115190;27;20100;-79
2021/12/08 04:46:13;;;;;;;26.50;11.90;;;;;;;-4.01;79.47;99782.53;5114876;28;20097;-79
2021/12/08 04:49:01;;;;;;;53.88;19.50;;;;;;;-4.01;78.50;99792.19;5114786;28;20040;-79
2021/12/08 04:51:44;;;;;;;26.17;11.82;;;;;;;-3.83;78.25;99788.69;5115214;28;20051;-80
2021/12/08 05:03:03;;;;;;;32.45;14.45;;;;;;;-4.09;80.42;99782.50;5114490;28;20119;-79
2021/12/08 05:05:49;;;;;;;35.17;16.95;;;;;;;-4.08;80.40;99786.00;5113714;28;20047;-79
2021/12/08 05:08:20;;;;;;;29.80;13.43;;;;;;;-3.99;79.54;99783.41;5115983;27;20115;-79
2021/12/08 05:10:51;;;;;;;30.13;13.88;;;;;;;-4.00;79.86;99783.38;5114350;28;20055;-79
2021/12/08 05:13:20;;;;;;;26.38;12.60;;;;;;;-4.02;79.91;99782.50;5114124;28;20112;-78
2021/12/08 05:15:53;;;;;;;28.88;14.77;;;;;;;-4.01;80.16;99784.25;5114193;28;20047;-80
2021/12/08 05:18:23;;;;;;;28.95;14.32;;;;;;;-4.05;80.06;99793.06;5115104;28;20101;-79
2021/12/08 05:20:55;;;;;;;43.28;22.08;;;;;;;-4.00;79.57;99780.75;5115889;27;20043;-81
2021/12/08 05:23:33;;;;;;;37.35;18.58;;;;;;;-4.04;81.64;99792.19;5114509;28;20047;-79
2021/12/08 05:26:03;;;;;;;46.60;19.63;;;;;;;-4.00;80.04;99784.28;5114322;28;20043;-81
2021/12/08 05:28:32;;;;;;;36.92;16.02;;;;;;;-3.96;80.42;99780.75;5114662;28;20044;-80
2021/12/08 05:31:06;;;;;;;33.75;16.10;;;;;;;-3.93;80.46;99785.16;5113776;28;20043;-80
2021/12/08 05:33:34;;;;;;;58.42;24.05;;;;;;;-3.98;81.43;99787.81;5115498;28;20050;-80
2021/12/08 05:36:02;;;;;;;73.40;33.45;;;;;;;-4.08;81.00;99794.81;5113959;28;20040;-79
2021/12/08 05:38:30;;;;;;;62.15;27.92;;;;;;;-3.89;79.62;99792.19;5113869;27;20044;-79
2021/12/08 05:41:02;;;;;;;75.72;31.92;;;;;;;-3.85;80.31;99788.72;5114346;27;20043;-79
2021/12/08 05:43:30;;;;;;;50.97;22.42;;;;;;;-3.91;80.86;99782.53;5113882;28;20577;-79
2021/12/08 05:45:57;;;;;;;62.85;25.40;;;;;;;-4.05;80.29;99774.59;5113406;28;20378;-79
2021/12/08 05:48:30;;;;;;;32.08;14.35;;;;;;;-4.09;80.00;99785.13;5113767;27;20048;-79
2021/12/08 05:51:03;;;;;;;45.13;19.48;;;;;;;-3.91;80.11;99778.13;5115564;27;20071;-78
2021/12/08 05:53:32;;;;;;;39.58;21.88;;;;;;;-3.77;80.34;99780.78;5114093;28;20071;-79
2021/12/08 05:55:59;;;;;;;34.58;16.83;;;;;;;-3.83;80.74;99776.41;5113663;28;20044;-79
2021/12/08 05:58:28;;;;;;;30.33;16.00;;;;;;;-3.80;79.95;99780.78;5113762;28;20044;-78
2021/12/08 06:01:00;;;;;;;39.17;19.17;;;;;;;-3.74;80.45;99780.78;5113367;27;20453;-79
2021/12/08 06:03:29;;;;;;;36.15;17.33;;;;;;;-3.82;80.11;99779.91;5113975;28;20042;-79
2021/12/08 06:05:58;;;;;;;26.08;13.65;;;;;;;-3.84;80.95;99776.38;5113574;27;20047;-79
2021/12/08 06:08:27;;;;;;;28.00;15.60;;;;;;;-3.97;80.64;99783.38;5113631;28;20048;-79
2021/12/08 06:10:57;;;;;;;43.92;17.98;;;;;;;-3.99;80.67;99777.22;5113440;28;20485;-79
2021/12/08 06:13:24;;;;;;;31.05;15.07;;;;;;;-4.01;80.38;99782.53;5113427;28;20047;-78
2021/12/08 06:15:52;;;;;;;45.60;22.35;;;;;;;-3.91;81.40;99772.84;5113164;28;20051;-79
2021/12/08 06:18:23;;;;;;;48.65;23.23;;;;;;;-3.98;80.42;99771.06;5115657;27;20059;-78
2021/12/08 06:20:54;;;;;;;28.98;14.95;;;;;;;-3.75;80.38;99783.44;5118172;28;20599;-79
2021/12/08 06:23:21;;;;;;;45.25;22.13;;;;;;;-3.87;80.93;99782.56;5117708;28;20043;-79
2021/12/08 06:25:49;;;;;;;29.08;14.07;;;;;;;-3.76;80.69;99792.25;5117438;28;20043;-79
2021/12/08 06:28:17;;;;;;;24.80;11.57;;;;;;;-3.93;81.63;99791.34;5117645;28;20062;-79
2021/12/08 06:30:45;;;;;;;27.45;12.07;;;;;;;-3.82;80.96;99786.06;5117111;28;20047;-79
2021/12/08 06:33:14;;;;;;;24.63;11.70;;;;;;;-3.74;80.90;99779.91;5117545;27;20450;-79
2021/12/08 06:35:44;;;;;;;24.38;12.00;;;;;;;-3.87;80.77;99782.56;5117399;28;20062;-77
2021/12/08 06:38:13;;;;;;;27.67;12.85;;;;;;;-4.02;81.28;99793.06;5117536;27;20051;-78
2021/12/08 06:40:44;;;;;;;26.38;11.95;;;;;;;-3.86;81.51;99786.06;5117307;28;20044;-79
2021/12/08 06:43:15;;;;;;;25.65;11.95;;;;;;;-3.95;80.96;99787.81;5117973;28;20508;-79
2021/12/08 06:45:46;;;;;;;22.30;11.35;;;;;;;-3.73;80.11;99781.69;5117653;27;20043;-79
2021/12/08 06:48:18;;;;;;;23.73;12.68;;;;;;;-3.83;80.82;99781.69;5118777;27;20499;-79
2021/12/08 06:50:49;;;;;;;25.45;12.45;;;;;;;-3.88;81.45;99775.47;5114790;27;20130;-79
2021/12/08 06:53:19;;;;;;;26.17;12.20;;;;;;;-3.91;81.89;99775.47;5113877;28;20508;-80
2021/12/08 06:55:51;;;;;;;32.92;17.58;;;;;;;-3.84;80.84;99777.28;5113411;28;20047;-79
2021/12/08 06:58:21;;;;;;;26.42;12.85;;;;;;;-3.75;81.01;99780.81;5114546;28;20051;-80
2021/12/08 07:00:59;;;;;;;30.50;14.27;;;;;;;-3.80;80.70;99776.41;5113289;27;20039;-80
2021/12/08 07:03:38;;;;;;;46.47;23.08;;;;;;;-3.76;80.73;99779.03;5113604;28;20056;-79
2021/12/08 07:06:12;;;;;;;63.53;29.42;;;;;;;-3.72;81.00;99779.03;5113502;27;20047;-80
2021/12/08 07:08:46;;;;;;;188.05;64.97;;;;;;;-3.58;80.88;99772.91;5113076;28;20054;-79
2021/12/08 07:11:15;;;;;;;144.23;56.15;;;;;;;-3.55;81.27;99772.88;5113638;28;20043;-79
2021/12/08 07:13:43;;;;;;;90.10;35.63;;;;;;;-3.90;81.12;99769.31;5112911;28;20048;-79
2021/12/08 07:16:13;;;;;;;66.70;30.88;;;;;;;-3.78;82.39;99766.72;5112677;28;20739;-79
2021/12/08 07:18:52;;;;;;;151.02;57.72;;;;;;;-3.78;82.38;99771.09;5112194;28;20067;-79
2021/12/08 07:21:21;;;;;;;320.98;100.40;;;;;;;-3.76;81.76;99779.03;5112852;28;20541;-80
2021/12/08 07:23:53;;;;;;;281.17;90.15;;;;;;;-3.80;82.04;99771.13;5112857;27;20044;-79
2021/12/08 07:26:25;;;;;;;68.72;27.13;;;;;;;-3.74;81.70;99774.63;5113939;28;20047;-79
2021/12/08 07:28:54;;;;;;;58.83;27.55;;;;;;;-3.64;81.42;99772.00;5112169;28;20058;-79
2021/12/08 07:31:24;;;;;;;204.38;59.25;;;;;;;-3.69;81.73;99772.88;5111868;27;20473;-79
2021/12/08 07:33:53;;;;;;;216.50;63.42;;;;;;;-3.70;80.69;99777.25;5112329;27;20394;-79
2021/12/08 07:36:22;;;;;;;491.52;137.13;;;;;;;-3.68;80.95;99769.34;5112715;27;20048;-79
2021/12/08 07:38:54;;;;;;;568.67;159.70;;;;;;;-3.68;81.09;99775.50;5112349;27;20397;-80
2021/12/08 07:41:29;;;;;;;199.63;56.00;;;;;;;-3.69;80.71;99772.88;5112280;27;20039;-79
2021/12/08 07:43:59;;;;;;;344.75;85.10;;;;;;;-3.68;80.09;99774.63;5113047;28;20048;-79
2021/12/08 07:46:31;;;;;;;317.50;87.53;;;;;;;-3.74;79.88;99767.59;5112263;28;20071;-79
2021/12/08 07:49:01;;;;;;;316.88;91.82;;;;;;;-3.75;80.69;99772.88;5113684;28;20134;-79
2021/12/08 07:51:33;;;;;;;128.13;47.88;;;;;;;-3.67;80.51;99766.72;5112022;28;20039;-79
2021/12/08 07:54:04;;;;;;;164.73;60.08;;;;;;;-3.58;79.87;99771.13;5111710;28;20048;-79
2021/12/08 07:56:33;;;;;;;284.70;109.93;;;;;;;-3.75;80.48;99765.81;5112796;28;20096;-79
2021/12/08 07:59:03;;;;;;;57.05;27.60;;;;;;;-3.68;80.38;99764.06;5111853;28;20050;-79
2021/12/08 08:01:33;;;;;;;81.35;36.72;;;;;;;-3.61;79.58;99764.97;5111752;28;20531;-79
2021/12/08 08:04:00;;;;;;;65.03;32.72;;;;;;;-3.59;80.41;99769.34;5109414;28;20047;-79
2021/12/08 08:06:31;;;;;;;46.75;25.02;;;;;;;-3.57;80.33;99762.31;5111421;27;20043;-79
2021/12/08 08:08:59;;;;;;;28.42;15.40;;;;;;;-3.52;78.96;99762.31;5113920;27;21122;-79
2021/12/08 08:11:30;;;;;;;48.47;24.30;;;;;;;-3.47;79.30;99759.66;5112429;28;20073;-80
2021/12/08 08:13:58;;;;;;;33.35;17.77;;;;;;;-3.51;79.59;99761.44;5117258;28;20043;-79
2021/12/08 08:16:31;;;;;;;27.23;13.20;;;;;;;-3.70;80.32;99766.69;5111756;28;20036;-79
2021/12/08 08:19:06;;;;;;;25.13;12.98;;;;;;;-3.67;79.35;99772.00;5115222;27;20098;-79
2021/12/08 08:21:37;;;;;;;31.88;13.70;;;;;;;-3.68;80.73;99787.84;5114023;28;20039;-79
2021/12/08 08:24:06;;;;;;;26.15;12.43;;;;;;;-3.61;79.96;99784.31;5111171;28;20039;-79
2021/12/08 08:26:36;;;;;;;28.55;14.35;;;;;;;-3.66;80.07;99789.63;5113273;28;20498;-79
2021/12/08 08:29:04;;;;;;;24.42;12.02;;;;;;;-3.70;80.26;99795.75;5115162;28;20039;-79
2021/12/08 08:31:35;;;;;;;26.02;12.88;;;;;;;-3.66;79.68;99791.38;5113734;28;20118;-79
2021/12/08 08:34:04;;;;;;;50.28;24.23;;;;;;;-3.57;79.18;99796.63;5114075;27;20393;-79
2021/12/08 08:36:36;;;;;;;47.95;23.05;;;;;;;-3.46;79.45;99795.78;5113593;27;20405;-81
2021/12/08 08:39:06;;;;;;;50.35;28.08;;;;;;;-3.47;79.04;99801.91;5114558;28;20047;-79
2021/12/08 08:41:39;;;;;;;51.17;26.50;;;;;;;-3.57;79.65;99807.22;5114587;28;20043;-80
2021/12/08 08:44:09;;;;;;;36.40;19.67;;;;;;;-3.56;78.78;99795.75;5111479;28;20557;-77
2021/12/08 08:46:40;;;;;;;46.72;23.98;;;;;;;-3.55;79.64;99805.44;5113880;27;20488;-78
2021/12/08 08:49:10;;;;;;;70.15;37.45;;;;;;;-3.54;79.72;99799.28;5114563;28;20045;-78
2021/12/08 08:51:43;;;;;;;38.28;20.65;;;;;;;-3.49;80.07;99804.56;5114559;27;20050;-78
2021/12/08 08:54:14;;;;;;;30.08;15.38;;;;;;;-3.36;81.00;99805.47;5110868;28;20489;-77
2021/12/08 08:56:46;;;;;;;33.45;17.02;;;;;;;-3.41;80.82;99804.59;5113702;27;20039;-78
2021/12/08 08:59:18;;;;;;;36.70;16.73;;;;;;;-3.35;80.63;99801.94;5114029;27;20118;-77
2021/12/08 09:01:49;;;;;;;28.95;14.38;;;;;;;-3.37;80.72;99801.06;5095006;28;20048;-81
2021/12/08 09:04:20;;;;;;;41.85;18.38;;;;;;;-3.47;79.33;99797.53;5091232;28;20040;-78
2021/12/08 09:06:50;;;;;;;44.42;21.88;;;;;;;-3.43;80.08;99801.06;5090527;28;20048;-78
2021/12/08 09:09:23;;;;;;;34.85;16.73;;;;;;;-3.42;79.94;99795.78;5089704;28;20048;-80
2021/12/08 09:11:55;;;;;;;34.53;15.40;;;;;;;-3.33;79.58;99791.34;5100141;28;20040;-79
2021/12/08 09:14:25;;;;;;;33.67;15.18;;;;;;;-3.28;79.22;99790.50;5111099;28;20047;-78
2021/12/08 09:16:56;;;;;;;27.90;13.10;;;;;;;-3.43;79.83;99796.66;5112433;28;20055;-79
2021/12/08 09:19:38;;;;;;;32.10;13.90;;;;;;;-3.35;78.99;99792.25;5109452;28;20455;-79
2021/12/08 09:22:09;;;;;;;32.72;15.75;;;;;;;-3.49;80.18;99786.97;5110820;28;20047;-78
2021/12/08 09:24:45;;;;;;;58.85;32.58;;;;;;;-3.33;80.34;99786.97;5110475;28;20036;-79
2021/12/08 09:27:16;;;;;;;37.55;19.00;;;;;;;-3.27;80.90;99786.97;5110398;28;20497;-78
2021/12/08 09:29:46;;;;;;;34.45;19.58;;;;;;;-3.25;78.86;99779.91;5111197;28;20040;-78
2021/12/08 09:32:18;;;;;;;112.55;54.10;;;;;;;-3.22;80.38;99785.19;5109794;28;20153;-78
2021/12/08 09:34:54;;;;;;;43.05;22.27;;;;;;;-3.31;78.25;99768.47;5110184;28;20057;-78
2021/12/08 09:37:23;;;;;;;62.60;33.80;;;;;;;-3.33;79.26;99773.75;5110511;28;20440;-79
2021/12/08 09:39:53;;;;;;;42.30;18.50;;;;;;;-3.16;79.64;99771.09;5108949;27;20055;-79
2021/12/08 09:42:26;;;;;;;136.35;43.25;;;;;;;-3.06;79.47;99771.94;5108508;28;20443;-79
2021/12/08 09:44:57;;;;;;;64.80;29.75;;;;;;;-3.14;79.93;99765.81;5110621;28;20046;-78
2021/12/08 09:47:29;;;;;;;49.75;17.45;;;;;;;-3.03;80.13;99773.72;5110172;28;20104;-78
2021/12/08 09:49:57;;;;;;;59.25;18.17;;;;;;;-2.96;80.05;99760.50;5110881;27;20044;-78
2021/12/08 09:52:27;;;;;;;93.10;27.95;;;;;;;-3.08;80.40;99763.13;5108747;28;20505;-78
2021/12/08 09:54:55;;;;;;;66.55;24.42;;;;;;;-3.10;79.38;99767.56;5110086;27;20039;-78
2021/12/08 09:57:24;;;;;;;52.63;20.20;;;;;;;-3.11;78.79;99763.16;5110195;28;20055;-78
2021/12/08 09:59:52;;;;;;;148.88;45.58;;;;;;;-3.00;79.88;99765.78;5110058;27;20044;-78
2021/12/08 10:02:29;;;;;;;221.52;64.13;;;;;;;-2.96;79.61;99763.13;5110105;27;20044;-78
2021/12/08 10:04:57;;;;;;;303.00;81.93;;;;;;;-3.05;79.95;99765.81;5111523;27;20048;-79
2021/12/08 10:07:26;;;;;;;187.48;55.42;;;;;;;-3.02;79.73;99764.91;5109328;28;20040;-78
2021/12/08 10:09:53;;;;;;;73.07;25.45;;;;;;;-3.07;79.99;99764.91;5110576;27;20504;-77
2021/12/08 10:12:21;;;;;;;167.02;48.50;;;;;;;-3.03;79.88;99761.41;5113113;27;20055;-78
2021/12/08 10:14:50;;;;;;;124.78;45.35;;;;;;;-3.02;80.13;99754.34;5113514;28;20488;-79
2021/12/08 10:17:19;;;;;;;210.60;65.07;;;;;;;-3.08;80.41;99752.56;5113334;28;20048;-79
2021/12/08 10:19:49;;;;;;;84.22;31.83;;;;;;;-2.90;79.30;99738.44;5113153;28;20060;-79
2021/12/08 10:22:20;;;;;;;88.70;36.75;;;;;;;-3.02;78.95;99749.03;5113071;28;20051;-79
2021/12/08 10:25:04;;;;;;;72.80;30.05;;;;;;;-2.93;79.46;99749.91;5113343;28;20046;-78
2021/12/08 10:27:31;;;;;;;70.40;31.42;;;;;;;-3.11;79.29;99736.72;5113358;28;20054;-79
2021/12/08 10:30:22;;;;;;;85.55;34.25;;;;;;;-3.02;79.42;99726.16;5113512;28;20048;-78
2021/12/08 10:32:50;;;;;;;90.45;37.63;;;;;;;-3.04;79.93;99704.13;5113366;27;20047;-78
2021/12/08 10:35:46;;;;;;;57.50;25.58;;;;;;;-3.09;79.42;99708.53;5113052;28;20047;-78
2021/12/08 10:38:16;;;;;;;54.25;21.67;;;;;;;-3.06;78.91;99706.78;5113679;28;20050;-79
2021/12/08 10:40:58;;;;;;;45.80;20.10;;;;;;;-2.97;78.74;99700.59;5113287;28;20062;-78
2021/12/08 10:43:25;;;;;;;62.05;24.30;;;;;;;-3.02;78.92;99705.00;5115423;28;20115;-77
2021/12/08 10:46:06;;;;;;;60.65;24.48;;;;;;;-2.95;78.09;99708.50;5113193;28;20503;-78
2021/12/08 10:48:37;;;;;;;178.68;52.00;;;;;;;-3.01;77.61;99700.59;5113261;28;20043;-77
2021/12/08 10:56:47;;;;;;;32.75;14.23;;;;;;;-3.06;78.46;99711.16;5113419;28;19927;-78
2021/12/08 10:59:15;;;;;;;29.80;13.15;;;;;;;-3.24;79.29;99709.47;5112035;28;20055;-79
2021/12/08 11:01:44;;;;;;;40.97;16.95;;;;;;;-3.02;78.36;99704.13;5109567;28;20105;-79
2021/12/08 11:04:16;;;;;;;53.05;18.77;;;;;;;-3.17;77.74;99700.66;5112991;27;20051;-78
2021/12/08 11:06:44;;;;;;;67.88;26.05;;;;;;;-3.14;78.26;99707.66;5115643;28;20097;-77
2021/12/08 11:09:17;;;;;;;32.83;16.90;;;;;;;-3.29;78.94;99709.47;5115295;27;20043;-78
2021/12/08 11:11:45;;;;;;;29.38;13.38;;;;;;;-3.16;78.17;99707.69;5113483;28;20044;-78
2021/12/08 11:14:14;;;;;;;32.30;13.77;;;;;;;-3.21;77.87;99694.47;5115327;27;20043;-78
2021/12/08 11:16:44;;;;;;;45.30;19.77;;;;;;;-3.15;77.77;99684.78;5112506;28;20477;-78
2021/12/08 11:19:14;;;;;;;42.03;18.58;;;;;;;-3.09;78.94;99679.47;5115409;27;20625;-77
2021/12/08 11:21:46;;;;;;;25.35;11.48;;;;;;;-3.23;77.34;99674.25;5112830;28;20114;-78
2021/12/08 11:24:19;;;;;;;36.78;17.65;;;;;;;-3.23;77.99;99671.59;5116751;28;20477;-79
2021/12/08 11:26:49;;;;;;;31.40;15.68;;;;;;;-3.04;77.19;99659.22;5112796;28;20122;-79
2021/12/08 11:29:18;;;;;;;68.50;27.48;;;;;;;-3.14;77.78;99661.00;5114352;28;20089;-78
2021/12/08 11:31:48;;;;;;;34.42;18.65;;;;;;;-3.18;77.46;99666.28;5114954;27;20043;-79
2021/12/08 11:34:19;;;;;;;35.17;16.90;;;;;;;-3.30;77.00;99672.47;5116299;27;20172;-78
2021/12/08 11:36:47;;;;;;;42.00;18.65;;;;;;;-3.17;77.84;99657.47;5115160;28;20043;-78
2021/12/08 11:39:16;;;;;;;38.90;17.40;;;;;;;-3.10;78.09;99656.56;5114307;28;20047;-78
2021/12/08 11:41:46;;;;;;;28.27;13.52;;;;;;;-3.14;76.32;99649.53;5114634;28;20040;-78
2021/12/08 11:44:15;;;;;;;35.72;17.40;;;;;;;-3.13;76.21;99656.56;5114627;27;20546;-78
2021/12/08 11:46:49;;;;;;;34.38;17.30;;;;;;;-3.02;74.53;99652.16;5112135;28;20451;-78
2021/12/08 11:49:17;;;;;;;30.50;14.05;;;;;;;-3.38;75.62;99630.25;5112872;28;20100;-77
2021/12/08 11:51:59;;;;;;;33.10;14.00;;;;;;;-3.50;76.13;99647.00;5114215;27;20044;-77
2021/12/08 11:54:30;;;;;;;70.82;28.67;;;;;;;-3.34;75.93;99637.28;5113443;28;20047;-78
2021/12/08 11:57:10;;;;;;;35.90;15.30;;;;;;;-3.23;75.53;99643.41;5114377;27;20092;-78
2021/12/08 11:59:54;;;;;;;26.55;12.05;;;;;;;-3.26;75.30;99640.75;5115641;28;20133;-77
2021/12/08 12:02:27;;;;;;;27.85;11.85;;;;;;;-3.29;74.68;99642.53;5112101;28;20048;-78
2021/12/08 12:04:55;;;;;;;27.65;12.85;;;;;;;-3.31;75.88;99634.63;5114163;28;20112;-79
2021/12/08 12:07:23;;;;;;;35.67;15.18;;;;;;;-3.43;75.19;99643.47;5114186;27;20519;-77